Kootenai, Idaho
Current Conditions -  °F | °C
As of 1:15 PM on Friday 31 Oct 2014 (Local Time) from KSZT Reporting Station
Broken Clouds Broken Clouds  
Wind Chill: 50°   Ceiling: 11000
Heat Index: 50°   Visibility: 10mi
Dew Point: 45°   Wind: 5mph
Humidity: 82%   Direction: 220°SW
Pressure: 29.75"   Gusts: NA
Location:  48.31°N, 116.51°W
Report Text: KSZT 312015Z AUTO 22004KT 10SM BKN110 10/07 A2975 RMK AO2
Loading
Personal Weather Stations






























Interactive Weather Map
Tropical Storm Tracking
New forecast layout! Learn more

10-Day Weather Forecast

Advertisements
Track Severe Weather on mobile